M-v Safiye Ana — TCCW9 — position and weather

sailwx.info

Track history (hours):
 
Tides and Currents Weather Stations Pressure Air Temp Water Temp Dewpoint Dewpoint Depression Visibility Wind Speed Wind Dir Waves Ship Positions

M-v Safiye Ana

Last reported at 2018-Feb-20 21:09 UTC. Time now 2018-Feb-22 14:30 UTC.
Position N 32°57' E 034°37'.

Length 87 m; draft 6 m.

Type: Cargo ship. MMSI: 271000770.

Date/timePositionNaut miles runAvg speedWind from/ knotsBaromVisibWave heightAir tempDewpointWater temp
2018-Feb-20 21:09N 32°57' E 034°37'211.7
2018-Feb-20 20:59N 32°57' E 034°39'511.1
2018-Feb-20 20:30N 32°55' E 034°45'611.2
2018-Feb-20 20:00N 32°53' E 034°52'7 0.2
2018-Feb-19 13:02N 32°51' E 034°59'0 0.0
2018-Feb-19 12:56N 32°51' E 034°59'0 0.0
2018-Feb-19 00:58N 32°51' E 034°59'0 0.0
2018-Feb-18 23:32N 32°51' E 034°59'0 0.0
2018-Feb-18 21:48N 32°51' E 034°59'1 3.6
2018-Feb-18 21:27N 32°52' E 034°58'5 9.5
2018-Feb-18 20:59N 32°53' E 034°53'5 9.8
2018-Feb-18 20:30N 32°54' E 034°47'5 9.9
2018-Feb-18 19:59N 32°55' E 034°41'  
2018-Feb-13 04:12N 44°37' E 013°34'2 9.3
2018-Feb-13 03:56N 44°39' E 013°33'4 9.5
2018-Feb-13 03:29N 44°42' E 013°29'5 9.8
2018-Feb-13 03:00N 44°46' E 013°26'5 9.8
2018-Feb-13 02:31N 44°51' E 013°22'5 9.8
2018-Feb-13 02:00N 44°55' E 013°18'5 9.7
2018-Feb-13 01:30N 44°59' E 013°15'5 9.6
2018-Feb-13 01:00N 45°03' E 013°11'5 9.5
2018-Feb-13 00:30N 45°07' E 013°07'5 9.6
2018-Feb-13 00:00N 45°11' E 013°05'5 9.8
2018-Feb-12 23:30N 45°16' E 013°04'5 9.7
2018-Feb-12 23:00N 45°21' E 013°03'5 9.8
2018-Feb-12 22:30N 45°25' E 013°07'510.3
2018-Feb-12 22:00N 45°29' E 013°12'510.4
2018-Feb-12 21:30N 45°32' E 013°17'510.2
2018-Feb-12 21:00N 45°35' E 013°24'510.2
2018-Feb-12 20:30N 45°37' E 013°30'510.0
2018-Feb-12 20:00N 45°40' E 013°36'5 9.6
2018-Feb-12 19:30N 45°45' E 013°36'3 6.2
2018-Feb-12 19:00N 45°47' E 013°33'0 0.0
2018-Feb-12 18:30N 45°47' E 013°33'0 0.0
2018-Feb-12 18:00N 45°47' E 013°33'0 0.0
2018-Feb-12 17:30N 45°47' E 013°33'0 0.0
2018-Feb-12 17:00N 45°47' E 013°33'0 0.0
2018-Feb-12 16:29N 45°47' E 013°33'0 0.0
2018-Feb-12 15:14N 45°47' E 013°33'0 0.0
2018-Feb-12 14:59N 45°47' E 013°33'0 0.0
2018-Feb-12 14:28N 45°47' E 013°33'0 0.0
2018-Feb-12 13:58N 45°47' E 013°33'0 0.0
2018-Feb-12 13:28N 45°47' E 013°33'0 0.0
2018-Feb-12 12:58N 45°47' E 013°33'0 0.0
2018-Feb-12 12:22N 45°47' E 013°33'0 0.0
2018-Feb-12 11:54N 45°47' E 013°33'0 0.0
2018-Feb-12 11:24N 45°47' E 013°33'0 0.0
2018-Feb-12 10:57N 45°47' E 013°33'0 0.0
2018-Feb-12 10:30N 45°47' E 013°33'0 0.0
2018-Feb-12 10:00N 45°47' E 013°33'0 0.0
2018-Feb-12 09:29N 45°47' E 013°33'0 0.0
2018-Feb-12 08:59N 45°47' E 013°33'0 0.0
2018-Feb-12 08:26N 45°47' E 013°33'0 0.0
2018-Feb-12 07:59N 45°47' E 013°33'0 0.0
2018-Feb-12 07:28N 45°47' E 013°33'0 0.0
2018-Feb-12 06:55N 45°47' E 013°33'0 0.0
2018-Feb-12 06:13N 45°47' E 013°33'0 0.0
2018-Feb-12 05:52N 45°47' E 013°33'0 0.0
2018-Feb-12 05:28N 45°47' E 013°33'0 0.0
2018-Feb-12 05:00N 45°47' E 013°33'0 0.0
2018-Feb-12 04:30N 45°47' E 013°33'0 0.0
2018-Feb-12 03:57N 45°47' E 013°33'0 0.0
2018-Feb-12 03:30N 45°47' E 013°33'0 0.0
2018-Feb-12 03:00N 45°47' E 013°33'0 0.0
2018-Feb-12 02:26N 45°47' E 013°33'0 0.0
2018-Feb-12 01:59N 45°47' E 013°33'0 0.0
2018-Feb-12 01:29N 45°47' E 013°33'0 0.0
2018-Feb-12 00:59N 45°47' E 013°33'0 0.0
2018-Feb-12 00:28N 45°47' E 013°33'0 0.0
2018-Feb-11 23:58N 45°47' E 013°33'0 0.0
2018-Feb-11 23:28N 45°47' E 013°33'0 0.0
2018-Feb-11 22:58N 45°47' E 013°33'0 0.0
2018-Feb-11 22:28N 45°47' E 013°33'0 0.0
2018-Feb-11 22:00N 45°47' E 013°33'0 0.0
2018-Feb-11 21:30N 45°47' E 013°33'0 0.0
2018-Feb-11 20:57N 45°47' E 013°33'0 0.0
2018-Feb-11 20:30N 45°47' E 013°33'0 0.0
2018-Feb-11 19:56N 45°47' E 013°33'0 0.0
2018-Feb-11 19:29N 45°47' E 013°33'0 0.0
2018-Feb-11 18:59N 45°47' E 013°33'0 0.0
2018-Feb-11 18:29N 45°47' E 013°33'0 0.0
2018-Feb-11 17:59N 45°47' E 013°33'0 0.0
2018-Feb-11 17:28N 45°47' E 013°33'0 0.0
2018-Feb-11 16:58N 45°47' E 013°33'0 0.0
2018-Feb-11 16:28N 45°47' E 013°33'0 0.0
2018-Feb-11 15:55N 45°47' E 013°33'0 0.0
2018-Feb-11 15:27N 45°47' E 013°33'0 0.0
2018-Feb-11 15:00N 45°47' E 013°33'0 0.0
2018-Feb-11 14:30N 45°47' E 013°33'0 0.0
2018-Feb-11 14:00N 45°47' E 013°33'0 0.0
2018-Feb-11 13:27N 45°47' E 013°33'0 0.0
2018-Feb-11 12:53N 45°47' E 013°33'0 0.0
2018-Feb-11 12:29N 45°47' E 013°33'0 0.0
2018-Feb-11 11:53N 45°47' E 013°33'0 0.0
2018-Feb-11 11:26N 45°47' E 013°33'0 0.0
2018-Feb-11 10:59N 45°47' E 013°33'0 0.0
2018-Feb-11 10:28N 45°47' E 013°33'0 0.0
2018-Feb-11 09:58N 45°47' E 013°33'0 0.0
2018-Feb-11 09:25N 45°47' E 013°33'0 0.0
2018-Feb-11 08:58N 45°47' E 013°33'0 0.0
2018-Feb-11 08:31N 45°47' E 013°33'0 0.0
2018-Feb-11 08:00N 45°47' E 013°33'0 0.0
2018-Feb-11 07:30N 45°47' E 013°33'0 0.0
2018-Feb-11 07:00N 45°47' E 013°33'0 0.0
2018-Feb-11 06:30N 45°47' E 013°33'0 0.0
2018-Feb-11 05:59N 45°47' E 013°33'0 0.0
2018-Feb-11 05:29N 45°47' E 013°33'0 0.0
2018-Feb-11 04:56N 45°47' E 013°33'0 0.0
2018-Feb-11 04:29N 45°47' E 013°33'0 0.0
2018-Feb-11 03:59N 45°47' E 013°33'0 0.0
2018-Feb-11 03:28N 45°47' E 013°33'0 0.0
2018-Feb-11 02:58N 45°47' E 013°33'0 0.0
2018-Feb-11 02:28N 45°47' E 013°33'0 0.0
2018-Feb-11 01:58N 45°47' E 013°33'0 0.0
2018-Feb-11 01:31N 45°47' E 013°33'0 0.0
2018-Feb-11 01:00N 45°47' E 013°33'0 0.0
2018-Feb-11 00:30N 45°47' E 013°33'0 0.0
2018-Feb-11 00:00N 45°47' E 013°33'0 0.0
2018-Feb-10 23:30N 45°47' E 013°33'0 0.0
2018-Feb-10 22:59N 45°47' E 013°33'0 0.0
2018-Feb-10 22:26N 45°47' E 013°33'0 0.0
2018-Feb-10 21:59N 45°47' E 013°33'0 0.0
2018-Feb-10 21:29N 45°47' E 013°33'  
Track history (hours):
 
Tides and Currents Weather Stations Pressure Air Temp Water Temp Dewpoint Dewpoint Depression Visibility Wind Speed Wind Dir Waves Ship Positions

M-v Safiye Ana

Last reported at 2018-Feb-20 21:09 UTC. Time now 2018-Feb-22 14:30 UTC.
Position N 32°57' E 034°37'.

Length 87 m; draft 6 m.

Type: Cargo ship. MMSI: 271000770.

Date/timePositionNaut miles runAvg speedWind from/ knotsBaromVisibWave heightAir tempDewpointWater temp
2018-Feb-20 21:09N 32°57' E 034°37'211.7
2018-Feb-20 20:59N 32°57' E 034°39'511.1
2018-Feb-20 20:30N 32°55' E 034°45'611.2
2018-Feb-20 20:00N 32°53' E 034°52'7 0.2
2018-Feb-19 13:02N 32°51' E 034°59'0 0.0
2018-Feb-19 12:56N 32°51' E 034°59'0 0.0
2018-Feb-19 00:58N 32°51' E 034°59'0 0.0
2018-Feb-18 23:32N 32°51' E 034°59'0 0.0
2018-Feb-18 21:48N 32°51' E 034°59'1 3.6
2018-Feb-18 21:27N 32°52' E 034°58'5 9.5
2018-Feb-18 20:59N 32°53' E 034°53'5 9.8
2018-Feb-18 20:30N 32°54' E 034°47'5 9.9
2018-Feb-18 19:59N 32°55' E 034°41'  
2018-Feb-13 04:12N 44°37' E 013°34'2 9.3
2018-Feb-13 03:56N 44°39' E 013°33'4 9.5
2018-Feb-13 03:29N 44°42' E 013°29'5 9.8
2018-Feb-13 03:00N 44°46' E 013°26'5 9.8
2018-Feb-13 02:31N 44°51' E 013°22'5 9.8
2018-Feb-13 02:00N 44°55' E 013°18'5 9.7
2018-Feb-13 01:30N 44°59' E 013°15'5 9.6
2018-Feb-13 01:00N 45°03' E 013°11'5 9.5
2018-Feb-13 00:30N 45°07' E 013°07'5 9.6
2018-Feb-13 00:00N 45°11' E 013°05'5 9.8
2018-Feb-12 23:30N 45°16' E 013°04'5 9.7
2018-Feb-12 23:00N 45°21' E 013°03'5 9.8
2018-Feb-12 22:30N 45°25' E 013°07'510.3
2018-Feb-12 22:00N 45°29' E 013°12'510.4
2018-Feb-12 21:30N 45°32' E 013°17'510.2
2018-Feb-12 21:00N 45°35' E 013°24'510.2
2018-Feb-12 20:30N 45°37' E 013°30'510.0
2018-Feb-12 20:00N 45°40' E 013°36'5 9.6
2018-Feb-12 19:30N 45°45' E 013°36'3 6.2
2018-Feb-12 19:00N 45°47' E 013°33'0 0.0
2018-Feb-12 18:30N 45°47' E 013°33'0 0.0
2018-Feb-12 18:00N 45°47' E 013°33'0 0.0
2018-Feb-12 17:30N 45°47' E 013°33'0 0.0
2018-Feb-12 17:00N 45°47' E 013°33'0 0.0
2018-Feb-12 16:29N 45°47' E 013°33'0 0.0
2018-Feb-12 15:14N 45°47' E 013°33'0 0.0
2018-Feb-12 14:59N 45°47' E 013°33'0 0.0
2018-Feb-12 14:28N 45°47' E 013°33'0 0.0
2018-Feb-12 13:58N 45°47' E 013°33'0 0.0
2018-Feb-12 13:28N 45°47' E 013°33'0 0.0
2018-Feb-12 12:58N 45°47' E 013°33'0 0.0
2018-Feb-12 12:22N 45°47' E 013°33'0 0.0
2018-Feb-12 11:54N 45°47' E 013°33'0 0.0
2018-Feb-12 11:24N 45°47' E 013°33'0 0.0
2018-Feb-12 10:57N 45°47' E 013°33'0 0.0
2018-Feb-12 10:30N 45°47' E 013°33'0 0.0
2018-Feb-12 10:00N 45°47' E 013°33'0 0.0
2018-Feb-12 09:29N 45°47' E 013°33'0 0.0
2018-Feb-12 08:59N 45°47' E 013°33'0 0.0
2018-Feb-12 08:26N 45°47' E 013°33'0 0.0
2018-Feb-12 07:59N 45°47' E 013°33'0 0.0
2018-Feb-12 07:28N 45°47' E 013°33'0 0.0
2018-Feb-12 06:55N 45°47' E 013°33'0 0.0
2018-Feb-12 06:13N 45°47' E 013°33'0 0.0
2018-Feb-12 05:52N 45°47' E 013°33'0 0.0
2018-Feb-12 05:28N 45°47' E 013°33'0 0.0
2018-Feb-12 05:00N 45°47' E 013°33'0 0.0
2018-Feb-12 04:30N 45°47' E 013°33'0 0.0
2018-Feb-12 03:57N 45°47' E 013°33'0 0.0
2018-Feb-12 03:30N 45°47' E 013°33'0 0.0
2018-Feb-12 03:00N 45°47' E 013°33'0 0.0
2018-Feb-12 02:26N 45°47' E 013°33'0 0.0
2018-Feb-12 01:59N 45°47' E 013°33'0 0.0
2018-Feb-12 01:29N 45°47' E 013°33'0 0.0
2018-Feb-12 00:59N 45°47' E 013°33'0 0.0
2018-Feb-12 00:28N 45°47' E 013°33'0 0.0
2018-Feb-11 23:58N 45°47' E 013°33'0 0.0
2018-Feb-11 23:28N 45°47' E 013°33'0 0.0
2018-Feb-11 22:58N 45°47' E 013°33'0 0.0
2018-Feb-11 22:28N 45°47' E 013°33'0 0.0
2018-Feb-11 22:00N 45°47' E 013°33'0 0.0
2018-Feb-11 21:30N 45°47' E 013°33'0 0.0
2018-Feb-11 20:57N 45°47' E 013°33'0 0.0
2018-Feb-11 20:30N 45°47' E 013°33'0 0.0
2018-Feb-11 19:56N 45°47' E 013°33'0 0.0
2018-Feb-11 19:29N 45°47' E 013°33'0 0.0
2018-Feb-11 18:59N 45°47' E 013°33'0 0.0
2018-Feb-11 18:29N 45°47' E 013°33'0 0.0
2018-Feb-11 17:59N 45°47' E 013°33'0 0.0
2018-Feb-11 17:28N 45°47' E 013°33'0 0.0
2018-Feb-11 16:58N 45°47' E 013°33'0 0.0
2018-Feb-11 16:28N 45°47' E 013°33'0 0.0
2018-Feb-11 15:55N 45°47' E 013°33'0 0.0
2018-Feb-11 15:27N 45°47' E 013°33'0 0.0
2018-Feb-11 15:00N 45°47' E 013°33'0 0.0
2018-Feb-11 14:30N 45°47' E 013°33'0 0.0
2018-Feb-11 14:00N 45°47' E 013°33'0 0.0
2018-Feb-11 13:27N 45°47' E 013°33'0 0.0
2018-Feb-11 12:53N 45°47' E 013°33'0 0.0
2018-Feb-11 12:29N 45°47' E 013°33'0 0.0
2018-Feb-11 11:53N 45°47' E 013°33'0 0.0
2018-Feb-11 11:26N 45°47' E 013°33'0 0.0
2018-Feb-11 10:59N 45°47' E 013°33'0 0.0
2018-Feb-11 10:28N 45°47' E 013°33'0 0.0
2018-Feb-11 09:58N 45°47' E 013°33'0 0.0
2018-Feb-11 09:25N 45°47' E 013°33'0 0.0
2018-Feb-11 08:58N 45°47' E 013°33'0 0.0
2018-Feb-11 08:31N 45°47' E 013°33'0 0.0
2018-Feb-11 08:00N 45°47' E 013°33'0 0.0
2018-Feb-11 07:30N 45°47' E 013°33'0 0.0
2018-Feb-11 07:00N 45°47' E 013°33'0 0.0
2018-Feb-11 06:30N 45°47' E 013°33'0 0.0
2018-Feb-11 05:59N 45°47' E 013°33'0 0.0
2018-Feb-11 05:29N 45°47' E 013°33'0 0.0
2018-Feb-11 04:56N 45°47' E 013°33'0 0.0
2018-Feb-11 04:29N 45°47' E 013°33'0 0.0
2018-Feb-11 03:59N 45°47' E 013°33'0 0.0
2018-Feb-11 03:28N 45°47' E 013°33'0 0.0
2018-Feb-11 02:58N 45°47' E 013°33'0 0.0
2018-Feb-11 02:28N 45°47' E 013°33'0 0.0
2018-Feb-11 01:58N 45°47' E 013°33'0 0.0
2018-Feb-11 01:31N 45°47' E 013°33'0 0.0
2018-Feb-11 01:00N 45°47' E 013°33'0 0.0
2018-Feb-11 00:30N 45°47' E 013°33'0 0.0
2018-Feb-11 00:00N 45°47' E 013°33'0 0.0
2018-Feb-10 23:30N 45°47' E 013°33'0 0.0
2018-Feb-10 22:59N 45°47' E 013°33'0 0.0
2018-Feb-10 22:26N 45°47' E 013°33'0 0.0
2018-Feb-10 21:59N 45°47' E 013°33'0 0.0
2018-Feb-10 21:29N 45°47' E 013°33'  

Dump ship's entire track history